createdAt,value
2018-04-12T00:01:52.273Z,70.15
2018-04-12T00:04:18.133Z,70.22
2018-04-12T00:06:44.004Z,69.85
2018-04-12T00:09:09.860Z,70.13
2018-04-12T00:11:35.738Z,70.34
2018-04-12T00:14:01.596Z,69.83
2018-04-12T00:16:27.425Z,69.87
2018-04-12T00:18:53.265Z,70.17
2018-04-12T00:21:19.109Z,70.00
2018-04-12T00:23:44.922Z,69.95
2018-04-12T00:26:10.760Z,70.19
2018-04-12T00:28:36.662Z,70.54
2018-04-12T00:31:02.540Z,70.59
2018-04-12T00:43:13.413Z,70.64
2018-04-12T00:45:39.233Z,70.66
2018-04-12T00:48:05.116Z,70.32
2018-04-12T00:50:30.967Z,70.34
2018-04-12T00:52:56.817Z,70.46
2018-04-12T00:55:22.677Z,70.54
2018-04-12T00:57:48.528Z,70.52
2018-04-12T01:00:14.396Z,70.58
2018-04-12T01:02:40.278Z,70.72
2018-04-12T01:05:06.162Z,70.54
2018-04-12T01:07:32.005Z,70.35
2018-04-12T01:09:57.852Z,70.29
2018-04-12T01:12:23.674Z,70.39
2018-04-12T01:14:49.528Z,70.63
2018-04-12T01:17:15.361Z,70.76
2018-04-12T01:19:41.201Z,70.97
2018-04-12T01:22:07.057Z,71.11
2018-04-12T01:24:32.892Z,71.02
2018-04-12T01:26:58.759Z,71.08
2018-04-12T01:29:31.671Z,71.40
2018-04-12T01:31:57.576Z,71.52
2018-04-12T01:34:23.437Z,71.58
2018-04-12T01:36:49.320Z,71.83
2018-04-12T01:39:15.185Z,71.92
2018-04-12T01:41:41.090Z,71.98
2018-04-12T01:44:06.976Z,72.40
2018-04-12T01:46:32.857Z,72.49
2018-04-12T01:48:58.709Z,72.43
2018-04-12T01:51:24.620Z,72.46
2018-04-12T01:53:50.485Z,72.32
2018-04-12T01:56:16.346Z,72.37
2018-04-12T01:58:42.216Z,72.56
2018-04-12T02:01:08.091Z,72.55
2018-04-12T02:03:33.948Z,72.61
2018-04-12T02:05:59.805Z,72.93
2018-04-12T02:08:25.681Z,73.30
2018-04-12T02:10:51.567Z,73.26
2018-04-12T02:13:17.483Z,73.27
2018-04-12T02:15:43.373Z,73.39
2018-04-12T02:18:09.286Z,73.40
2018-04-12T02:20:35.125Z,73.50
2018-04-12T02:23:01.008Z,73.69
2018-04-12T02:25:26.871Z,73.96
2018-04-12T02:27:52.732Z,73.96
2018-04-12T02:30:18.655Z,73.77
2018-04-12T02:32:44.541Z,73.82
2018-04-12T02:35:10.398Z,73.90
2018-04-12T02:37:36.260Z,73.64
2018-04-12T02:40:02.167Z,74.02
2018-04-12T02:42:28.023Z,74.16
2018-04-12T02:44:53.870Z,74.18
2018-04-12T02:47:19.721Z,74.43
2018-04-12T02:49:45.596Z,74.59
2018-04-12T02:52:11.451Z,74.16
2018-04-12T02:54:37.349Z,74.02
2018-04-12T02:57:03.281Z,73.82
2018-04-12T02:59:29.145Z,74.01
2018-04-12T03:01:55.040Z,74.03
2018-04-12T03:04:20.911Z,74.22
2018-04-12T03:06:46.823Z,74.02
2018-04-12T03:09:12.663Z,74.09
2018-04-12T03:11:38.516Z,74.10
2018-04-12T03:14:04.383Z,74.06
2018-04-12T03:16:30.287Z,74.13
2018-04-12T03:18:56.141Z,74.23
2018-04-12T03:21:21.994Z,74.36
2018-04-12T03:23:47.869Z,74.55
2018-04-12T03:26:13.717Z,74.89
2018-04-12T03:28:39.573Z,75.18
2018-04-12T03:31:05.454Z,75.24
2018-04-12T03:33:31.340Z,75.44
2018-04-12T03:35:57.229Z,75.54
2018-04-12T03:38:23.080Z,75.73
2018-04-12T03:40:48.964Z,75.50
2018-04-12T03:43:14.862Z,75.81
2018-04-12T03:45:40.733Z,75.92
2018-04-12T03:48:06.619Z,75.77
2018-04-12T03:50:32.590Z,76.15
2018-04-12T03:52:58.427Z,76.02
2018-04-12T03:55:24.307Z,76.25
2018-04-12T03:57:50.157Z,76.37
2018-04-12T04:00:16.057Z,76.17
2018-04-12T04:02:41.914Z,76.46
2018-04-12T04:05:07.766Z,75.83
2018-04-12T04:07:34.093Z,75.89
2018-04-12T04:09:59.965Z,75.83
2018-04-12T04:12:25.865Z,75.90
2018-04-12T04:18:12.981Z,76.06
2018-04-12T04:21:12.563Z,75.73
2018-04-12T04:23:38.425Z,75.34
2018-04-12T04:26:04.341Z,75.35
2018-04-12T04:28:30.188Z,75.06
2018-04-12T04:30:56.109Z,75.19
2018-04-12T04:33:21.959Z,75.14
2018-04-12T04:35:47.799Z,75.28
2018-04-12T04:38:13.669Z,75.59
2018-04-12T04:40:39.562Z,75.58
2018-04-12T04:43:05.445Z,75.52
2018-04-12T04:45:31.339Z,75.54
2018-04-12T04:47:57.209Z,75.74
2018-04-12T04:50:23.095Z,75.84
2018-04-12T04:52:48.976Z,75.39
2018-04-12T04:55:14.833Z,75.19
2018-04-12T04:57:40.743Z,75.20
2018-04-12T05:00:06.714Z,75.60
2018-04-12T05:02:32.653Z,75.42
2018-04-12T05:04:58.533Z,75.70
2018-04-12T05:07:24.409Z,75.49
2018-04-12T05:09:50.284Z,75.27
2018-04-12T05:12:16.189Z,75.08
2018-04-12T05:14:42.064Z,74.96
2018-04-12T05:17:07.961Z,75.18
2018-04-12T05:19:33.819Z,74.81
2018-04-12T05:21:59.685Z,74.67
2018-04-12T05:24:25.537Z,74.54
2018-04-12T05:26:51.385Z,74.75
2018-04-12T05:29:17.302Z,74.67
2018-04-12T05:31:43.163Z,74.53
2018-04-12T05:34:09.089Z,75.13
2018-04-12T05:36:34.955Z,75.23
2018-04-12T05:39:00.800Z,74.24
2018-04-12T05:41:26.640Z,74.42
2018-04-12T05:43:52.505Z,73.90
2018-04-12T05:46:18.385Z,73.72
2018-04-12T05:48:44.292Z,73.29
2018-04-12T05:51:10.129Z,73.04
2018-04-12T05:53:36.012Z,72.98
2018-04-12T05:56:01.887Z,72.72
2018-04-12T05:58:27.756Z,72.65
2018-04-12T06:01:00.485Z,72.35
2018-04-12T06:03:26.368Z,71.98
2018-04-12T06:05:52.204Z,71.87
2018-04-12T06:08:18.044Z,71.55
2018-04-12T06:10:43.893Z,71.63
2018-04-12T06:13:09.768Z,71.23
2018-04-12T06:15:35.629Z,71.02
2018-04-12T06:18:01.469Z,71.03
2018-04-12T06:20:27.394Z,70.92
2018-04-12T06:22:53.226Z,70.92
2018-04-12T06:25:19.116Z,71.24
2018-04-12T06:27:45.004Z,70.76
2018-04-12T06:30:10.841Z,70.73
2018-04-12T06:32:36.673Z,70.64
2018-04-12T06:35:02.529Z,70.68
2018-04-12T06:37:35.386Z,70.66
2018-04-12T06:40:01.250Z,71.06
2018-04-12T06:42:27.100Z,71.01
2018-04-12T06:44:52.977Z,70.92
2018-04-12T06:47:18.828Z,70.71
2018-04-12T06:49:44.701Z,70.15
2018-04-12T06:52:10.625Z,68.83
2018-04-12T06:54:36.479Z,68.22
2018-04-12T06:57:02.393Z,67.67
2018-04-12T06:59:28.284Z,66.64
2018-04-12T07:01:54.105Z,65.00
2018-04-12T07:04:19.976Z,64.29
2018-04-12T07:06:45.841Z,64.02
2018-04-12T07:09:11.755Z,62.61
2018-04-12T07:11:37.615Z,61.56
2018-04-12T07:14:03.493Z,60.84
2018-04-12T07:16:29.346Z,61.08
2018-04-12T07:18:55.201Z,60.86
2018-04-12T07:21:21.048Z,60.41
2018-04-12T07:23:46.962Z,59.97
2018-04-12T07:26:12.849Z,59.99
2018-04-12T07:28:38.716Z,59.05
2018-04-12T07:31:04.592Z,59.26
2018-04-12T07:33:30.453Z,57.62
2018-04-12T07:35:56.401Z,56.54
2018-04-12T07:38:22.245Z,57.62
2018-04-12T07:40:48.132Z,57.55
2018-04-12T07:43:14.008Z,58.71
2018-04-12T07:45:39.896Z,59.21
2018-04-12T07:48:05.776Z,59.26
2018-04-12T07:50:31.704Z,60.06
2018-04-12T07:52:57.606Z,58.71
2018-04-12T07:55:23.468Z,58.28
2018-04-12T07:57:49.300Z,57.40
2018-04-12T08:00:15.132Z,56.82
2018-04-12T08:02:40.960Z,55.48
2018-04-12T08:05:06.804Z,54.84
2018-04-12T08:07:32.684Z,55.13
2018-04-12T08:09:58.537Z,55.01
2018-04-12T08:12:24.430Z,53.84
2018-04-12T08:14:50.272Z,53.65
2018-04-12T08:17:16.138Z,53.05
2018-04-12T08:19:42.040Z,52.89
2018-04-12T08:22:07.914Z,52.72
2018-04-12T08:24:33.787Z,52.28
2018-04-12T08:26:59.680Z,52.36
2018-04-12T08:29:25.524Z,51.93
2018-04-12T08:31:51.410Z,51.73
2018-04-12T08:34:17.259Z,51.28
2018-04-12T08:36:43.106Z,50.80
2018-04-12T08:39:08.971Z,49.91
2018-04-12T08:41:34.801Z,48.78
2018-04-12T08:44:00.679Z,49.89
2018-04-12T08:46:26.589Z,50.52
2018-04-12T08:48:52.469Z,49.59
2018-04-12T08:51:18.321Z,49.48
2018-04-12T08:53:44.204Z,49.74
2018-04-12T08:56:10.069Z,48.56
2018-04-12T08:58:35.937Z,47.23
2018-04-12T09:01:01.804Z,45.78
2018-04-12T09:03:27.667Z,46.32
2018-04-12T09:05:53.534Z,46.21
2018-04-12T09:08:19.381Z,45.25
2018-04-12T09:10:45.284Z,45.84
2018-04-12T09:13:11.161Z,45.34
2018-04-12T09:15:37.021Z,45.03
2018-04-12T09:18:02.865Z,45.86
2018-04-12T09:20:28.734Z,45.64
2018-04-12T09:22:54.532Z,45.44
2018-04-12T09:25:20.397Z,44.81
2018-04-12T09:27:46.272Z,44.72
2018-04-12T09:30:12.124Z,45.48
2018-04-12T09:32:37.949Z,44.72
2018-04-12T09:35:03.802Z,45.05
2018-04-12T09:37:29.661Z,44.72
2018-04-12T09:39:55.501Z,44.70
2018-04-12T09:42:21.345Z,44.34
2018-04-12T09:44:47.158Z,44.50
2018-04-12T09:47:13.020Z,44.26
2018-04-12T09:49:38.874Z,44.40
2018-04-12T09:52:04.737Z,44.39
2018-04-12T09:54:30.557Z,43.98
2018-04-12T09:56:56.384Z,44.95
2018-04-12T09:59:22.260Z,45.09
2018-04-12T10:01:53.972Z,43.97
2018-04-12T10:04:19.848Z,44.25
2018-04-12T10:06:51.646Z,44.21
2018-04-12T10:09:17.544Z,44.22
2018-04-12T10:11:43.401Z,44.60
2018-04-12T10:14:09.261Z,45.13
2018-04-12T10:16:35.193Z,44.93
2018-04-12T10:19:01.049Z,45.07
2018-04-12T10:21:26.924Z,45.28
2018-04-12T10:23:52.894Z,45.34
2018-04-12T10:26:18.724Z,44.99
2018-04-12T10:28:44.606Z,44.36
2018-04-12T10:31:10.485Z,44.51
2018-04-12T10:33:36.346Z,43.56
2018-04-12T10:36:02.223Z,43.17
2018-04-12T10:38:28.100Z,44.21
2018-04-12T10:40:53.960Z,42.95
2018-04-12T10:43:19.802Z,43.72
2018-04-12T10:45:45.666Z,43.74
2018-04-12T10:48:11.518Z,43.01
2018-04-12T10:50:37.386Z,42.28
2018-04-12T10:53:03.261Z,41.74
2018-04-12T10:55:29.152Z,42.16
2018-04-12T10:57:55.021Z,41.89
2018-04-12T11:00:20.861Z,41.46
2018-04-12T11:02:46.736Z,41.83
2018-04-12T11:05:12.605Z,42.23
2018-04-12T11:07:38.476Z,40.65
2018-04-12T11:10:04.460Z,40.92
2018-04-12T11:12:30.334Z,39.98
2018-04-12T11:14:56.177Z,38.80
2018-04-12T11:17:22.094Z,38.42
2018-04-12T11:19:47.988Z,38.65
2018-04-12T11:22:13.828Z,39.48
2018-04-12T11:24:39.693Z,39.57
2018-04-12T11:27:05.596Z,39.29
2018-04-12T11:29:31.446Z,40.83
2018-04-12T11:31:57.304Z,40.65
2018-04-12T11:34:23.217Z,40.09
2018-04-12T11:36:49.009Z,39.32
2018-04-12T11:39:14.876Z,38.80
2018-04-12T11:41:40.756Z,39.07
2018-04-12T11:44:06.628Z,38.63
2018-04-12T11:46:32.519Z,38.17
2018-04-12T11:48:58.377Z,38.92
2018-04-12T11:51:24.222Z,34.45
2018-04-12T11:53:50.101Z,34.42
2018-04-12T11:56:15.976Z,34.79
2018-04-12T11:58:41.889Z,34.83
2018-04-12T12:04:02.608Z,34.56
2018-04-12T12:06:28.501Z,33.85
2018-04-12T12:08:54.345Z,33.99
2018-04-12T12:11:20.209Z,33.84
2018-04-12T12:13:46.056Z,32.87
2018-04-12T12:16:11.889Z,32.72
2018-04-12T12:18:37.732Z,33.43
2018-04-12T12:21:03.607Z,32.95
2018-04-12T12:23:29.466Z,32.67
2018-04-12T12:25:55.306Z,34.20
2018-04-12T12:28:21.141Z,32.73
2018-04-12T12:30:46.988Z,32.57
2018-04-12T12:33:12.827Z,32.76
2018-04-12T12:35:38.741Z,32.75
2018-04-12T12:38:04.601Z,32.69
2018-04-12T12:40:30.433Z,32.45
2018-04-12T12:42:56.293Z,31.97
2018-04-12T12:45:34.327Z,31.98
2018-04-12T12:48:06.320Z,32.82
2018-04-12T12:50:32.161Z,32.69
2018-04-12T12:53:04.198Z,32.61
2018-04-12T12:55:30.063Z,32.72
2018-04-12T12:58:02.231Z,32.28
2018-04-12T13:00:34.134Z,32.69
2018-04-12T13:02:59.984Z,32.73
2018-04-12T13:05:25.837Z,32.57
2018-04-12T13:07:51.672Z,32.60
2018-04-12T13:10:23.505Z,32.34
2018-04-12T13:12:55.309Z,33.12
2018-04-12T13:15:21.198Z,32.34
2018-04-12T13:17:47.117Z,32.61
2018-04-12T13:20:12.974Z,33.38
2018-04-12T13:22:38.841Z,31.40
2018-04-12T13:25:05.030Z,32.34
2018-04-12T13:27:30.905Z,32.42
2018-04-12T13:29:56.768Z,32.39
2018-04-12T13:32:22.633Z,32.31
2018-04-12T13:34:54.667Z,31.97
2018-04-12T13:37:20.536Z,31.09
2018-04-12T13:39:52.409Z,31.47
2018-04-12T13:42:18.268Z,30.82
2018-04-12T13:44:44.161Z,30.76
2018-04-12T13:47:16.163Z,31.45
2018-04-12T13:49:42.029Z,31.24
2018-04-12T13:52:14.005Z,32.42
2018-04-12T13:54:46.124Z,31.13
2018-04-12T13:57:11.979Z,31.54
2018-04-12T13:59:43.974Z,31.40
2018-04-12T14:02:15.974Z,32.21
2018-04-12T14:04:41.809Z,32.42
2018-04-12T14:07:19.853Z,32.02
2018-04-12T14:09:58.116Z,32.45
2018-04-12T14:12:23.976Z,33.16
2018-04-12T14:14:49.855Z,33.49
2018-04-12T14:17:27.913Z,32.73
2018-04-12T14:19:53.765Z,32.96
2018-04-12T14:22:19.643Z,33.39
2018-04-12T14:24:51.505Z,33.79
2018-04-12T14:27:17.369Z,33.71
2018-04-12T14:29:43.242Z,32.50
2018-04-12T14:32:09.122Z,32.29
2018-04-12T14:34:34.988Z,32.66
2018-04-12T14:37:06.948Z,33.16
2018-04-12T14:39:32.838Z,33.55
2018-04-12T14:41:59.737Z,33.32
2018-04-12T14:44:31.770Z,33.50
2018-04-12T14:46:57.646Z,34.21
2018-04-12T14:49:23.488Z,34.78
2018-04-12T14:51:49.366Z,35.46
2018-04-12T14:54:21.304Z,35.12
2018-04-12T14:56:59.552Z,35.38
2018-04-12T14:59:25.443Z,35.40
2018-04-12T15:01:51.348Z,35.46
2018-04-12T15:04:17.261Z,35.75
2018-04-12T15:06:43.153Z,36.02
2018-04-12T15:09:15.058Z,35.66
2018-04-12T15:11:47.084Z,35.33
2018-04-12T15:14:13.010Z,35.46
2018-04-12T15:16:38.880Z,35.74
2018-04-12T15:19:10.920Z,36.04
2018-04-12T15:21:42.909Z,35.24
2018-04-12T15:24:08.838Z,35.51
2018-04-12T15:26:34.693Z,36.02
2018-04-12T15:29:00.538Z,35.44
2018-04-12T15:31:38.721Z,36.16
2018-04-12T15:34:04.629Z,35.24
2018-04-12T15:36:36.609Z,35.34
2018-04-12T15:39:08.583Z,35.60
2018-04-12T15:41:34.474Z,36.05
2018-04-12T15:44:06.482Z,36.37
2018-04-12T15:46:32.401Z,36.65
2018-04-12T15:49:04.346Z,37.59
2018-04-12T15:51:30.268Z,37.15
2018-04-12T15:54:02.203Z,37.42
2018-04-12T15:56:34.103Z,37.04
2018-04-12T15:59:12.350Z,37.39
2018-04-12T16:01:44.414Z,37.69
2018-04-12T16:04:16.489Z,37.32
2018-04-12T16:06:48.623Z,37.40
2018-04-12T16:09:14.576Z,37.52
2018-04-12T16:11:40.670Z,37.62
2018-04-12T16:14:06.607Z,37.94
2018-04-12T16:16:38.628Z,38.32
2018-04-12T16:19:16.932Z,38.64
2018-04-12T16:21:49.008Z,38.49
2018-04-12T16:24:14.907Z,38.09
2018-04-12T16:26:40.781Z,38.58
2018-04-12T16:29:06.683Z,39.34
2018-04-12T16:31:32.557Z,38.75
2018-04-12T16:33:58.394Z,38.97
2018-04-12T16:36:24.269Z,39.56
2018-04-12T16:38:50.170Z,39.21
2018-04-12T16:41:16.094Z,39.59
2018-04-12T16:43:41.966Z,41.20
2018-04-12T16:46:13.938Z,41.19
2018-04-12T16:48:45.881Z,41.65
2018-04-12T16:51:11.777Z,40.64
2018-04-12T16:53:49.976Z,41.27
2018-04-12T16:56:15.889Z,42.96
2018-04-12T16:58:47.800Z,41.91
2018-04-12T17:01:13.684Z,41.40
2018-04-12T17:03:45.669Z,41.64
2018-04-12T17:06:11.509Z,43.72
2018-04-12T17:08:37.365Z,43.08
2018-04-12T17:11:03.250Z,43.41
2018-04-12T17:13:41.474Z,43.68
2018-04-12T17:16:07.383Z,44.22
2018-04-12T17:18:33.268Z,44.85
2018-04-12T17:20:59.171Z,44.85
2018-04-12T17:23:25.069Z,44.47
2018-04-12T17:25:50.950Z,45.28
2018-04-12T17:28:16.843Z,44.94
2018-04-12T17:30:48.824Z,44.77
2018-04-12T17:33:14.706Z,46.07
2018-04-12T17:35:40.565Z,46.02
2018-04-12T17:38:06.509Z,46.40
2018-04-12T17:40:32.362Z,46.99
2018-04-12T17:43:04.261Z,46.87
2018-04-12T17:45:30.181Z,47.11
2018-04-12T17:47:56.077Z,46.89
2018-04-12T17:50:22.003Z,47.34
2018-04-12T17:52:53.934Z,47.62
2018-04-12T17:55:19.827Z,47.89
2018-04-12T17:57:45.712Z,47.86
2018-04-12T18:00:11.696Z,48.53
2018-04-12T18:02:43.580Z,48.17
2018-04-12T18:05:09.493Z,47.61
2018-04-12T18:07:35.381Z,47.35
2018-04-12T18:10:01.321Z,47.57
2018-04-12T18:12:27.225Z,48.15
2018-04-12T18:14:53.172Z,49.12
2018-04-12T18:17:19.098Z,48.54
2018-04-12T18:19:51.102Z,49.41
2018-04-12T18:22:23.201Z,49.68
2018-04-12T18:34:29.122Z,49.00
2018-04-12T18:36:55.023Z,50.02
2018-04-12T18:39:33.125Z,50.81
2018-04-12T18:42:05.268Z,51.02
2018-04-12T18:44:43.523Z,51.38
2018-04-12T18:47:09.382Z,51.33
2018-04-12T18:49:35.252Z,51.35
2018-04-12T18:52:01.188Z,51.41
2018-04-12T18:54:27.128Z,51.56
2018-04-12T18:56:53.005Z,52.36
2018-04-12T18:59:31.419Z,52.19
2018-04-12T19:01:57.348Z,51.48
2018-04-12T19:04:23.276Z,49.89
2018-04-12T19:06:55.400Z,49.86
2018-04-12T19:09:21.317Z,50.42
2018-04-12T19:11:47.245Z,49.97
2018-04-12T19:14:13.157Z,50.18
2018-04-12T19:16:45.324Z,49.86
2018-04-12T19:19:11.239Z,49.73
2018-04-12T19:21:49.542Z,49.48
2018-04-12T19:24:16.150Z,49.52
2018-04-12T19:26:48.142Z,49.02
2018-04-12T19:29:14.062Z,47.99
2018-04-12T19:31:39.956Z,48.32
2018-04-12T19:34:12.005Z,50.36
2018-04-12T19:36:37.991Z,51.02
2018-04-12T19:39:03.930Z,52.98
2018-04-12T19:41:29.778Z,52.66
2018-04-12T19:43:55.637Z,53.02
2018-04-12T19:46:27.517Z,52.84
2018-04-12T19:48:53.404Z,52.57
2018-04-12T19:51:19.288Z,51.89
2018-04-12T19:53:45.166Z,53.91
2018-04-12T19:56:11.044Z,53.05
2018-04-12T19:58:36.898Z,54.27
2018-04-12T20:01:08.903Z,54.33
2018-04-12T20:03:34.849Z,55.05
2018-04-12T20:06:00.745Z,55.75
2018-04-12T20:08:26.641Z,55.75
2018-04-12T20:10:58.692Z,55.71
2018-04-12T20:13:24.553Z,54.35
2018-04-12T20:15:56.695Z,54.34
2018-04-12T20:18:28.677Z,52.92
2018-04-12T20:20:54.583Z,55.33
2018-04-12T20:23:26.422Z,54.41
2018-04-12T20:25:58.357Z,54.93
2018-04-12T20:28:24.202Z,55.53
2018-04-12T20:30:50.077Z,53.45
2018-04-12T20:33:22.136Z,52.72
2018-04-12T20:35:54.052Z,52.13
2018-04-12T20:38:25.986Z,52.23
2018-04-12T20:40:58.050Z,52.60
2018-04-12T20:43:30.060Z,52.80
2018-04-12T20:45:55.947Z,53.17
2018-04-12T20:48:27.973Z,53.51
2018-04-12T20:50:53.816Z,53.59
2018-04-12T20:53:19.684Z,53.63
2018-04-12T20:55:45.560Z,53.81
2018-04-12T20:58:11.428Z,53.43
2018-04-12T21:00:43.456Z,53.39
2018-04-12T21:03:09.354Z,53.63
2018-04-12T21:05:35.221Z,53.47
2018-04-12T21:08:07.241Z,53.86
2018-04-12T21:10:33.119Z,54.05
2018-04-12T21:13:05.322Z,54.84
2018-04-12T21:15:31.178Z,55.29
2018-04-12T21:18:03.052Z,55.32
2018-04-12T21:20:35.083Z,55.22
2018-04-12T21:23:00.954Z,55.37
2018-04-12T21:25:26.845Z,55.70
2018-04-12T21:27:58.937Z,55.70
2018-04-12T21:30:24.800Z,56.82
2018-04-12T21:32:50.637Z,56.04
2018-04-12T21:35:16.484Z,56.14
2018-04-12T21:37:42.307Z,56.03
2018-04-12T21:40:08.181Z,56.10
2018-04-12T21:42:34.042Z,56.09
2018-04-12T21:45:05.949Z,56.11
2018-04-12T21:47:31.835Z,56.88
2018-04-12T21:49:57.722Z,56.97
2018-04-12T21:52:29.713Z,56.75
2018-04-12T21:55:01.594Z,56.67
2018-04-12T21:57:33.640Z,56.51
2018-04-12T22:00:05.567Z,56.10
2018-04-12T22:02:43.621Z,56.24
2018-04-12T22:05:09.473Z,56.47
2018-04-12T22:07:35.316Z,56.11
2018-04-12T22:10:07.218Z,56.39
2018-04-12T22:12:33.127Z,55.98
2018-04-12T22:14:59.008Z,56.00
2018-04-12T22:17:31.044Z,56.23
2018-04-12T22:19:56.928Z,56.16
2018-04-12T22:22:22.786Z,56.13
2018-04-12T22:24:54.673Z,56.02
2018-04-12T22:27:20.577Z,56.33
2018-04-12T22:29:46.389Z,56.33
2018-04-12T22:32:12.257Z,56.46
2018-04-12T22:34:44.268Z,56.25
2018-04-12T22:37:16.422Z,56.17
2018-04-12T22:39:42.306Z,56.24
2018-04-12T22:42:08.182Z,56.38
2018-04-12T22:44:40.172Z,56.36
2018-04-12T22:47:06.027Z,56.64
2018-04-12T22:49:37.933Z,56.41
2018-04-12T22:52:03.842Z,56.71
2018-04-12T22:54:35.765Z,57.00
2018-04-12T22:57:07.603Z,57.12
2018-04-12T22:59:33.470Z,57.81
2018-04-12T23:01:59.351Z,57.77
2018-04-12T23:04:25.240Z,57.83
2018-04-12T23:06:51.102Z,57.94
2018-04-12T23:09:29.464Z,57.93
2018-04-12T23:11:55.319Z,57.74
2018-04-12T23:14:21.193Z,58.01
2018-04-12T23:16:47.040Z,58.22
2018-04-12T23:19:12.870Z,58.47
2018-04-12T23:21:38.734Z,58.62
2018-04-12T23:24:04.609Z,58.77
2018-04-12T23:26:36.714Z,58.98
2018-04-12T23:29:02.596Z,59.23
2018-04-12T23:31:28.460Z,59.58
2018-04-12T23:33:54.314Z,59.69
2018-04-12T23:36:20.154Z,59.75
2018-04-12T23:38:46.068Z,60.06
2018-04-12T23:41:11.914Z,60.48
2018-04-12T23:43:43.958Z,60.51
2018-04-12T23:46:09.795Z,61.02
2018-04-12T23:48:35.643Z,61.29
2018-04-12T23:51:01.470Z,61.26
2018-04-12T23:53:27.285Z,61.57
2018-04-12T23:55:59.362Z,61.77
2018-04-12T23:58:31.204Z,61.98
